Petersburgh, NY (12138)

3:15 AM EST on March 05, 2015 (GMT -0500)
APRSWXNET Grafton NY US | Change Station
CLOSE
Current Station
Personal Weather Station
Location: Petersburgh, NY
Elevation: 1650 ft
Nearby Weather Stations

Elev 1650 ft 42.73 °N, 73.41 °W | Updated 27 minutes ago

Overcast
Overcast
24 °F
Feels Like 24 °F
N
1
Wind Variable Wind from SSE
Gusts 3.0 mph

Today
High -- | Low -- °F
--% Chance of Precip.
Yesterday
High -- | Low -- °F
Precip. -- in
6:23 AM 5:47 PM
Full, 100% visible
Pressure 29.91 in
Visibility 10.0 miles
Clouds Overcast 3400 ft
Windchill 24 °F
Dew Point 21 °F
Humidity 87%
Rainfall in
Snow Depth Not available.
UV 0 out of 12
Pollen .50 out of 12
Air Quality Not available.
Flu Activity Not available.
METAR KAQW 050752Z AUTO 28009G17KT 10SM OVC034 M01/M07 A2989 RMK AO2 SLP128 T10111067

More Conditions Fewer Conditions

Pressure 29.91 in
Visibility 10.0 miles
Clouds Overcast 3400 ft
Windchill 24 °F
Dew Point 21 °F
Humidity 87%
Rainfall in
Snow Depth Not available.
UV 0 out of 12
Pollen .50 out of 12
Air Quality Not available.
Flu Activity Not available.
METAR KAQW 050752Z AUTO 28009G17KT 10SM OVC034 M01/M07 A2989 RMK AO2 SLP128 T10111067

More Conditions Fewer Conditions

10-Day Weather Forecast

Almanac

Astronomy

Mar. 05, 2015 Rise Set
Actual Time
Civil Twilight
Nautical Twilight
Astronomical Twilight
Moon
Length of Visible Light
Length of Day
Tomorrow will be .
, % of the Moon is Illuminated

Today's Extremes

State Highs State Lows

Community

WunderPhotos

Upload Photos

1,802,704 photos uploaded!

WunderBlogs® & News

Nearby

Air Quality

  Air Quality AQ Index Pollutant
Not available.

Snow Depth

Station Depth Elevation

Earthquake Activity

City Distance Mag. Time & Date
Minimum magnitude displayed is 2.5.

Coastal Water Temperatures

Place Temperature

Nearby Weather Stations